Time;durP1;ratioP1;P1;durP2;ratioP2;P2;SDS_P1;SDS_P2;PMS_P1;PMS_P2;Temp;Humidity;BMP_temperature;BMP_pressure;BME280_temperature;BME280_humidity;BME280_pressure;Samples;Min_cycle;Max_cycle;Signal;HPM_P1;HPM_P2
2022/03/12 00:01:18;;;;;;;22.57;21.30;;;;;;;-141.02;100.00;55844.97;5136174;27;20241;-72
2022/03/12 00:03:46;;;;;;;22.07;20.87;;;;;;;-141.02;100.00;55844.97;5135797;27;20224;-71
2022/03/12 00:06:13;;;;;;;22.80;21.50;;;;;;;-141.02;100.00;55844.97;5135852;27;20197;-71
2022/03/12 00:08:44;;;;;;;23.00;21.70;;;;;;;-141.02;100.00;55844.97;5135826;27;20287;-72
2022/03/12 00:11:17;;;;;;;23.73;22.23;;;;;;;-141.02;100.00;55844.97;5136099;27;20239;-71
2022/03/12 00:13:45;;;;;;;22.77;21.47;;;;;;;-141.02;100.00;55844.97;5136037;27;20196;-71
2022/03/12 00:16:14;;;;;;;24.77;23.37;;;;;;;-141.02;100.00;55844.97;5135667;27;20228;-71
2022/03/12 00:18:42;;;;;;;23.13;21.60;;;;;;;-141.02;100.00;55844.97;5135864;27;20205;-73
2022/03/12 00:21:12;;;;;;;23.30;21.93;;;;;;;-141.02;100.00;55844.97;5135883;27;20292;-71
2022/03/12 00:23:41;;;;;;;22.63;21.33;;;;;;;-141.02;100.00;55844.97;5135424;27;20248;-71
2022/03/12 00:26:08;;;;;;;23.30;22.00;;;;;;;-141.02;100.00;55844.97;5135491;27;20197;-71
2022/03/12 00:28:36;;;;;;;24.30;22.90;;;;;;;-141.02;100.00;55844.97;5135388;27;20230;-71
2022/03/12 00:31:03;;;;;;;24.90;23.30;;;;;;;-141.02;100.00;55844.97;5135709;27;20227;-71
2022/03/12 00:33:31;;;;;;;23.23;21.93;;;;;;;-141.02;100.00;55844.97;5135365;27;20192;-71
2022/03/12 00:35:58;;;;;;;22.20;21.00;;;;;;;-141.02;100.00;55844.97;5135248;27;20196;-71
2022/03/12 00:38:25;;;;;;;23.77;22.37;;;;;;;-141.02;100.00;55844.97;5135183;27;20778;-71
2022/03/12 00:40:52;;;;;;;24.40;22.63;;;;;;;-141.02;100.00;55844.97;5135462;27;20207;-71
2022/03/12 00:43:20;;;;;;;21.23;20.03;;;;;;;-141.02;100.00;55844.97;5135331;27;20311;-71
2022/03/12 00:45:50;;;;;;;23.63;22.20;;;;;;;-141.02;100.00;55844.97;5135105;27;20663;-71
2022/03/12 00:48:17;;;;;;;23.13;21.93;;;;;;;-141.02;100.00;55844.97;5135069;27;20276;-71
2022/03/12 00:50:44;;;;;;;23.77;22.17;;;;;;;-141.02;100.00;55844.97;5134991;27;20214;-71
2022/03/12 00:53:11;;;;;;;22.67;21.47;;;;;;;-141.02;100.00;55844.97;5135215;27;20189;-71
2022/03/12 00:55:38;;;;;;;23.33;22.03;;;;;;;-141.02;100.00;55844.97;5135293;27;20197;-71
2022/03/12 00:58:05;;;;;;;20.80;19.70;;;;;;;-141.02;100.00;55844.97;5134850;27;20647;-71
2022/03/12 01:00:32;;;;;;;21.20;20.10;;;;;;;-141.02;100.00;55844.97;5135119;27;20275;-71
2022/03/12 01:03:01;;;;;;;22.17;20.97;;;;;;;-141.02;100.00;55844.97;5135045;27;20297;-71
2022/03/12 01:05:43;;;;;;;22.43;21.23;;;;;;;-141.02;100.00;55844.97;5134677;27;20754;-71
2022/03/12 01:08:10;;;;;;;21.97;20.77;;;;;;;-141.02;100.00;55844.97;5134709;27;20180;-71
2022/03/12 01:10:37;;;;;;;23.23;22.00;;;;;;;-141.02;100.00;55844.97;5134594;27;20192;-71
2022/03/12 01:13:04;;;;;;;22.23;21.03;;;;;;;-141.02;100.00;55844.97;5134595;27;20231;-71
2022/03/12 01:15:32;;;;;;;22.13;20.93;;;;;;;-141.02;100.00;55844.97;5134492;27;20249;-71
2022/03/12 01:18:00;;;;;;;22.00;20.80;;;;;;;-141.02;100.00;55844.97;5134492;27;20646;-71
2022/03/12 01:20:28;;;;;;;21.60;20.40;;;;;;;-141.02;100.00;55844.97;5134694;27;20230;-71
2022/03/12 01:22:55;;;;;;;20.77;19.67;;;;;;;-141.02;100.00;55844.97;5134620;27;20287;-71
2022/03/12 01:25:22;;;;;;;23.07;21.67;;;;;;;-141.02;100.00;55844.97;5134233;27;20228;-71
2022/03/12 01:27:49;;;;;;;22.77;21.57;;;;;;;-141.02;100.00;55844.97;5134825;27;20730;-71
2022/03/12 01:30:26;;;;;;;21.90;20.70;;;;;;;-141.02;100.00;55844.97;5134246;27;20288;-71
2022/03/12 01:32:53;;;;;;;22.80;21.60;;;;;;;-141.02;100.00;55844.97;5134523;27;20245;-71
2022/03/12 01:35:22;;;;;;;22.93;21.73;;;;;;;-141.02;100.00;55844.97;5134480;27;20637;-71
2022/03/12 01:37:49;;;;;;;22.03;20.83;;;;;;;-141.02;100.00;55844.97;5134013;27;20229;-71
2022/03/12 01:40:16;;;;;;;23.10;21.80;;;;;;;-141.02;100.00;55844.97;5134318;27;20224;-71
2022/03/12 01:42:43;;;;;;;24.77;23.37;;;;;;;-141.02;100.00;55844.97;5133976;27;20279;-71
2022/03/12 01:45:12;;;;;;;23.77;22.47;;;;;;;-141.02;100.00;55844.97;5133820;27;20263;-71
2022/03/12 01:47:40;;;;;;;24.27;22.87;;;;;;;-141.02;100.00;55844.97;5134145;27;20265;-71
2022/03/12 01:50:08;;;;;;;24.10;22.70;;;;;;;-141.02;100.00;55844.97;5134071;27;20196;-71
2022/03/12 01:52:36;;;;;;;24.63;23.33;;;;;;;-141.02;100.00;55844.97;5133783;27;20279;-71
2022/03/12 01:55:04;;;;;;;23.70;22.30;;;;;;;-141.02;100.00;55844.97;5133670;27;20284;-71
2022/03/12 01:57:32;;;;;;;22.70;21.40;;;;;;;-141.02;100.00;55844.97;5134012;27;20195;-71
2022/03/12 01:59:59;;;;;;;20.63;19.43;;;;;;;-141.02;100.00;55844.97;5133649;27;20654;-71
2022/03/12 02:02:27;;;;;;;22.50;21.20;;;;;;;-141.02;100.00;55844.97;5133940;27;20192;-71
2022/03/12 02:04:55;;;;;;;24.40;22.90;;;;;;;-141.02;100.00;55844.97;5133868;27;20281;-71
2022/03/12 02:07:22;;;;;;;31.77;29.20;;;;;;;-141.02;100.00;55844.97;5133768;27;20224;-71
2022/03/12 02:09:51;;;;;;;23.30;21.90;;;;;;;-141.02;100.00;55844.97;5133472;27;20203;-71
2022/03/12 02:12:18;;;;;;;64.23;52.13;;;;;;;-141.02;100.00;55844.97;5133721;27;20642;-71
2022/03/12 02:14:45;;;;;;;24.47;22.87;;;;;;;-141.02;100.00;55844.97;5133404;27;20196;-71
2022/03/12 02:17:13;;;;;;;20.07;18.97;;;;;;;-141.02;100.00;55844.97;5133643;27;20196;-71
2022/03/12 02:19:42;;;;;;;20.10;19.10;;;;;;;-141.02;100.00;55844.97;5133626;27;20189;-71
2022/03/12 02:22:10;;;;;;;21.07;19.93;;;;;;;-141.02;100.00;55844.97;5132880;27;20252;-71
2022/03/12 02:24:39;;;;;;;19.87;18.87;;;;;;;-141.02;100.00;55844.97;5133122;27;20233;-71
2022/03/12 02:27:10;;;;;;;19.60;18.60;;;;;;;-141.02;100.00;55844.97;5133506;27;20277;-71
2022/03/12 02:29:38;;;;;;;20.27;19.27;;;;;;;-141.02;100.00;55844.97;5133441;27;20180;-71
2022/03/12 02:32:09;;;;;;;21.03;19.90;;;;;;;-141.02;100.00;55844.97;5133438;27;20286;-71
2022/03/12 02:34:39;;;;;;;20.83;19.73;;;;;;;-141.02;100.00;55844.97;5133165;27;20188;-70
2022/03/12 02:37:07;;;;;;;19.87;18.67;;;;;;;-141.02;100.00;55844.97;5132920;27;20192;-71
2022/03/12 02:39:34;;;;;;;20.00;19.00;;;;;;;-141.02;100.00;55844.97;5133447;28;20292;-71
2022/03/12 02:42:07;;;;;;;20.10;19.10;;;;;;;-141.02;100.00;55844.97;5133318;27;20609;-71
2022/03/12 02:44:35;;;;;;;22.83;21.43;;;;;;;-141.02;100.00;55844.97;5132972;27;20218;-71
2022/03/12 02:47:14;;;;;;;20.07;19.07;;;;;;;-141.02;100.00;55844.97;5133184;28;20292;-71
2022/03/12 02:49:43;;;;;;;19.90;18.90;;;;;;;-141.02;100.00;55844.97;5133310;28;20185;-71
2022/03/12 02:52:10;;;;;;;19.90;18.90;;;;;;;-141.02;100.00;55844.97;5133111;28;20279;-71
2022/03/12 02:54:37;;;;;;;23.73;20.90;;;;;;;-141.02;100.00;55844.97;5133454;28;20192;-71
2022/03/12 02:57:06;;;;;;;19.63;18.63;;;;;;;-141.02;100.00;55844.97;5133121;28;20232;-71
2022/03/12 02:59:33;;;;;;;20.87;19.77;;;;;;;-141.02;100.00;55844.97;5133149;28;20231;-71
2022/03/12 03:02:03;;;;;;;20.67;19.57;;;;;;;-141.02;100.00;55844.97;5133320;28;20192;-71
2022/03/12 03:04:35;;;;;;;20.97;19.87;;;;;;;-141.02;100.00;55844.97;5133041;27;20224;-71
2022/03/12 03:07:03;;;;;;;21.53;20.43;;;;;;;-141.02;100.00;55844.97;5133128;28;20223;-71
2022/03/12 03:09:30;;;;;;;21.57;20.47;;;;;;;-141.02;100.00;55844.97;5133009;28;20196;-71
2022/03/12 03:12:02;;;;;;;21.10;20.00;;;;;;;-141.02;100.00;55844.97;5132768;27;20669;-71
2022/03/12 03:14:31;;;;;;;20.20;19.10;;;;;;;-141.02;100.00;55844.97;5133034;27;20184;-71
2022/03/12 03:17:00;;;;;;;21.23;20.13;;;;;;;-141.02;100.00;55844.97;5132717;27;20188;-71
2022/03/12 03:19:28;;;;;;;21.07;19.97;;;;;;;-141.02;100.00;55844.97;5132993;27;20224;-71
2022/03/12 03:21:58;;;;;;;22.53;21.33;;;;;;;-141.02;100.00;55844.97;5132701;27;20575;-71
2022/03/12 03:24:26;;;;;;;23.00;21.27;;;;;;;-141.02;100.00;55844.97;5132577;28;20220;-71
2022/03/12 03:26:58;;;;;;;22.30;20.80;;;;;;;-141.02;100.00;55844.97;5132931;28;20189;-71
2022/03/12 03:29:27;;;;;;;21.60;20.50;;;;;;;-141.02;100.00;55844.97;5132637;28;20184;-71
2022/03/12 03:31:55;;;;;;;21.10;20.00;;;;;;;-141.02;100.00;55844.97;5132604;27;20192;-71
2022/03/12 03:34:23;;;;;;;22.20;20.47;;;;;;;-141.02;100.00;55844.97;5136116;27;20279;-71
2022/03/12 03:36:51;;;;;;;20.67;19.57;;;;;;;-141.02;100.00;55844.97;5136411;27;20206;-71
2022/03/12 03:39:19;;;;;;;21.77;20.57;;;;;;;-141.02;100.00;55844.97;5136438;27;20261;-71
2022/03/12 03:41:46;;;;;;;21.40;20.30;;;;;;;-141.02;100.00;55844.97;5136592;27;20733;-71
2022/03/12 03:44:13;;;;;;;23.10;21.53;;;;;;;-141.02;100.00;55844.97;5136547;27;20311;-71
2022/03/12 03:46:41;;;;;;;21.03;19.93;;;;;;;-141.02;100.00;55844.97;5136322;27;20193;-71
2022/03/12 03:49:09;;;;;;;23.07;21.77;;;;;;;-141.02;100.00;55844.97;5136444;27;20287;-71
2022/03/12 03:51:40;;;;;;;21.70;20.60;;;;;;;-141.02;100.00;55844.97;5136240;27;20731;-71
2022/03/12 03:54:08;;;;;;;25.70;23.30;;;;;;;-141.02;100.00;55844.97;5136108;27;20184;-71
2022/03/12 03:56:35;;;;;;;20.50;19.40;;;;;;;-141.02;100.00;55844.97;5136112;27;20189;-71
2022/03/12 03:59:02;;;;;;;20.63;19.53;;;;;;;-141.02;100.00;55844.97;5136364;27;20196;-71
2022/03/12 04:01:29;;;;;;;24.33;22.93;;;;;;;-141.02;100.00;55844.97;5136367;27;20193;-71
2022/03/12 04:03:57;;;;;;;22.33;21.13;;;;;;;-141.02;100.00;55844.97;5135934;27;20666;-71
2022/03/12 04:06:26;;;;;;;21.03;19.93;;;;;;;-141.02;100.00;55844.97;5135998;27;20198;-72
2022/03/12 04:08:54;;;;;;;20.60;19.60;;;;;;;-141.02;100.00;55844.97;5135913;27;20729;-71
2022/03/12 04:11:23;;;;;;;20.27;19.27;;;;;;;-141.02;100.00;55844.97;5135757;27;20200;-71
2022/03/12 04:13:52;;;;;;;21.50;20.40;;;;;;;-141.02;100.00;55844.97;5136921;27;20193;-71
2022/03/12 04:16:20;;;;;;;19.80;18.80;;;;;;;-141.02;100.00;55844.97;5135714;27;20196;-71
2022/03/12 04:18:49;;;;;;;21.00;19.90;;;;;;;-141.02;100.00;55844.97;5135681;27;20196;-71
2022/03/12 04:21:19;;;;;;;21.90;20.70;;;;;;;-141.02;100.00;55844.97;5135924;27;20671;-71
2022/03/12 04:23:49;;;;;;;21.67;20.27;;;;;;;-141.02;100.00;55844.97;5136407;27;20200;-71
2022/03/12 04:26:17;;;;;;;24.97;23.47;;;;;;;-141.02;100.00;55844.97;5135789;27;20231;-71
2022/03/12 04:28:45;;;;;;;24.07;22.77;;;;;;;-141.02;100.00;55844.97;5135412;27;20231;-71
2022/03/12 04:31:13;;;;;;;24.27;22.87;;;;;;;-141.02;100.00;55844.97;5135421;27;20224;-71
2022/03/12 04:33:40;;;;;;;23.17;21.97;;;;;;;-141.02;100.00;55844.97;5135874;27;20248;-71
2022/03/12 04:36:09;;;;;;;24.20;22.90;;;;;;;-141.02;100.00;55844.97;5135263;27;20204;-71
2022/03/12 04:38:37;;;;;;;24.33;23.03;;;;;;;-141.02;100.00;55844.97;5135147;27;20289;-71
2022/03/12 04:41:07;;;;;;;24.67;23.27;;;;;;;-141.02;100.00;55844.97;5135265;27;20196;-72
2022/03/12 04:43:34;;;;;;;25.17;23.77;;;;;;;-141.02;100.00;55844.97;5135202;27;20249;-72
2022/03/12 04:46:02;;;;;;;26.03;24.63;;;;;;;-141.02;100.00;55844.97;5134654;27;20224;-71
2022/03/12 04:48:30;;;;;;;29.30;27.50;;;;;;;-141.02;100.00;55844.97;5135336;27;20196;-71
2022/03/12 04:50:58;;;;;;;25.40;23.90;;;;;;;-141.02;100.00;55844.97;5135326;27;20269;-71
2022/03/12 04:53:25;;;;;;;23.73;22.33;;;;;;;-141.02;100.00;55844.97;5135345;27;20196;-71
2022/03/12 04:55:52;;;;;;;23.53;22.03;;;;;;;-141.02;100.00;55844.97;5135239;27;20189;-72
2022/03/12 04:58:21;;;;;;;28.90;27.10;;;;;;;-141.02;100.00;55844.97;5134910;27;20646;-73
2022/03/12 05:00:48;;;;;;;24.30;23.00;;;;;;;-141.02;100.00;55844.97;5134851;27;20192;-72
2022/03/12 05:03:19;;;;;;;24.07;22.77;;;;;;;-141.02;100.00;55844.97;5135067;27;20233;-72
2022/03/12 05:05:48;;;;;;;24.57;23.07;;;;;;;-141.02;100.00;55844.97;5135010;27;20220;-72
2022/03/12 05:08:17;;;;;;;26.30;24.60;;;;;;;-141.02;100.00;55844.97;5134922;27;20192;-72
2022/03/12 05:10:48;;;;;;;25.57;24.13;;;;;;;-141.02;100.00;55844.97;5134984;27;20283;-72
2022/03/12 05:13:22;;;;;;;25.47;24.07;;;;;;;-141.02;100.00;55844.97;5134666;27;20271;-71
2022/03/12 05:15:53;;;;;;;25.67;23.83;;;;;;;-141.02;100.00;55844.97;5134548;27;20766;-72
2022/03/12 05:18:23;;;;;;;22.37;20.97;;;;;;;-141.02;100.00;55844.97;5134775;27;20564;-71
2022/03/12 05:20:51;;;;;;;21.77;20.50;;;;;;;-141.02;100.00;55844.97;5134770;27;20267;-72
2022/03/12 05:23:20;;;;;;;21.17;19.80;;;;;;;-141.02;100.00;55844.97;5134381;27;20670;-71
2022/03/12 05:25:49;;;;;;;20.37;19.03;;;;;;;-141.02;100.00;55844.97;5134503;27;20232;-71
2022/03/12 05:28:21;;;;;;;20.93;19.47;;;;;;;-141.02;100.00;55844.97;5134622;27;20200;-71
2022/03/12 05:30:48;;;;;;;21.03;19.83;;;;;;;-141.02;100.00;55844.97;5134481;27;20189;-72
2022/03/12 05:33:18;;;;;;;21.33;20.03;;;;;;;-141.02;100.00;55844.97;5134193;27;20196;-71
2022/03/12 05:35:46;;;;;;;21.90;20.40;;;;;;;-141.02;100.00;55844.97;5134142;27;20221;-71
2022/03/12 05:38:14;;;;;;;21.63;20.23;;;;;;;-141.02;100.00;55844.97;5134028;27;20268;-70
2022/03/12 05:40:42;;;;;;;20.40;19.03;;;;;;;-141.02;100.00;55844.97;5134007;27;20235;-70
2022/03/12 05:43:11;;;;;;;22.63;21.27;;;;;;;-141.02;100.00;55844.97;5134013;27;20204;-71
2022/03/12 05:45:39;;;;;;;23.33;21.83;;;;;;;-141.02;100.00;55844.97;5133903;27;20253;-70
2022/03/12 05:48:08;;;;;;;22.90;21.17;;;;;;;-141.02;100.00;55844.97;5134119;27;20231;-72
2022/03/12 05:50:37;;;;;;;22.90;21.40;;;;;;;-141.02;100.00;55844.97;5133859;27;20593;-70
2022/03/12 05:53:10;;;;;;;25.33;23.53;;;;;;;-141.02;100.00;55844.97;5134339;27;20703;-70
2022/03/12 05:55:39;;;;;;;23.33;21.83;;;;;;;-141.02;100.00;55844.97;5134223;27;20200;-70
2022/03/12 05:58:07;;;;;;;22.43;20.90;;;;;;;-141.02;100.00;55844.97;5133295;27;20726;-70
2022/03/12 06:00:35;;;;;;;21.73;20.53;;;;;;;-141.02;100.00;55844.97;5134038;27;20231;-72
2022/03/12 06:03:02;;;;;;;22.30;20.50;;;;;;;-141.02;100.00;55844.97;5133592;27;20291;-72
2022/03/12 06:05:31;;;;;;;22.30;20.90;;;;;;;-141.02;100.00;55844.97;5133502;27;20310;-73
2022/03/12 06:08:00;;;;;;;23.37;21.87;;;;;;;-141.02;100.00;55844.97;5133853;27;20731;-73
2022/03/12 06:10:29;;;;;;;21.60;20.40;;;;;;;-141.02;100.00;55844.97;5133753;27;20195;-72
2022/03/12 06:12:58;;;;;;;21.67;20.43;;;;;;;-141.02;100.00;55844.97;5133771;27;20193;-72
2022/03/12 06:15:28;;;;;;;21.57;20.37;;;;;;;-141.02;100.00;55844.97;5133721;27;20275;-72
2022/03/12 06:17:55;;;;;;;23.10;21.70;;;;;;;-141.02;100.00;55844.97;5134318;27;20192;-72
2022/03/12 06:20:24;;;;;;;21.77;20.53;;;;;;;-141.02;100.00;55844.97;5133366;27;20284;-73
2022/03/12 06:22:53;;;;;;;23.23;21.80;;;;;;;-141.02;100.00;55844.97;5133345;27;20283;-72
2022/03/12 06:25:23;;;;;;;21.30;20.10;;;;;;;-141.02;100.00;55844.97;5133190;27;20224;-72
2022/03/12 06:27:53;;;;;;;22.87;21.57;;;;;;;-141.02;100.00;55844.97;5133301;27;20271;-72
2022/03/12 06:30:22;;;;;;;23.47;21.97;;;;;;;-141.02;100.00;55844.97;5133244;27;20678;-70
2022/03/12 06:32:49;;;;;;;22.27;21.07;;;;;;;-141.02;100.00;55844.97;5133402;27;20192;-70
2022/03/12 06:35:17;;;;;;;21.97;20.77;;;;;;;-141.02;100.00;55844.97;5133171;27;20200;-70
2022/03/12 06:37:45;;;;;;;21.47;20.30;;;;;;;-141.02;100.00;55844.97;5133152;27;20228;-71
2022/03/12 06:40:14;;;;;;;21.70;20.50;;;;;;;-141.02;100.00;55844.97;5133338;27;20281;-70
2022/03/12 06:42:43;;;;;;;21.17;20.07;;;;;;;-141.02;100.00;55844.97;5133359;27;20271;-70
2022/03/12 06:45:15;;;;;;;21.63;20.53;;;;;;;-141.02;100.00;55844.97;5133284;27;20285;-70
2022/03/12 06:47:44;;;;;;;22.17;21.07;;;;;;;-141.02;100.00;55844.97;5133341;27;20196;-70
2022/03/12 06:50:15;;;;;;;22.30;21.00;;;;;;;-141.02;100.00;55844.97;5132982;27;20197;-70
2022/03/12 06:52:45;;;;;;;22.83;21.40;;;;;;;-141.02;100.00;55844.97;5133053;27;20184;-70
2022/03/12 06:55:12;;;;;;;21.60;20.50;;;;;;;-141.02;100.00;55844.97;5133187;28;20196;-70
2022/03/12 06:57:40;;;;;;;23.67;22.10;;;;;;;-141.02;100.00;55844.97;5133220;28;20275;-70
2022/03/12 07:00:15;;;;;;;22.37;21.17;;;;;;;-141.02;100.00;55844.97;5132928;27;20634;-70
2022/03/12 07:02:42;;;;;;;23.67;22.27;;;;;;;-141.02;100.00;55844.97;5133256;27;20219;-70
2022/03/12 07:05:11;;;;;;;22.93;21.53;;;;;;;-141.02;100.00;55844.97;5132729;28;20777;-70
2022/03/12 07:07:38;;;;;;;23.10;21.80;;;;;;;-141.02;100.00;55844.97;5133623;27;20192;-70
2022/03/12 07:10:07;;;;;;;22.73;21.47;;;;;;;-141.02;100.00;55844.97;5137276;27;20198;-70
2022/03/12 07:12:34;;;;;;;23.50;22.10;;;;;;;-141.02;100.00;55844.97;5136962;27;20193;-70
2022/03/12 07:15:01;;;;;;;21.93;20.57;;;;;;;-141.02;100.00;55844.97;5137246;27;20275;-70
2022/03/12 07:17:30;;;;;;;20.97;19.87;;;;;;;-141.02;100.00;55844.97;5137091;27;20292;-70
2022/03/12 07:19:57;;;;;;;22.20;20.90;;;;;;;-141.02;100.00;55844.97;5136797;27;20668;-70
2022/03/12 07:22:24;;;;;;;20.87;19.77;;;;;;;-141.02;100.00;55844.97;5136706;27;20193;-70
2022/03/12 07:24:51;;;;;;;21.63;20.43;;;;;;;-141.02;100.00;55844.97;5136735;27;20232;-70
2022/03/12 07:27:18;;;;;;;21.67;20.43;;;;;;;-141.02;100.00;55844.97;5136604;27;20764;-69
2022/03/12 07:29:45;;;;;;;20.93;19.93;;;;;;;-141.02;100.00;55844.97;5137070;27;20672;-70
2022/03/12 07:32:12;;;;;;;20.10;19.10;;;;;;;-141.02;100.00;55844.97;5136902;27;20220;-71
2022/03/12 07:34:40;;;;;;;21.67;20.57;;;;;;;-141.02;100.00;55844.97;5136442;27;20612;-71
2022/03/12 07:37:11;;;;;;;23.13;21.73;;;;;;;-141.02;100.00;55844.97;5136577;27;20268;-71
2022/03/12 07:39:38;;;;;;;22.63;21.43;;;;;;;-141.02;100.00;55844.97;5137017;27;20188;-71
2022/03/12 07:42:06;;;;;;;22.83;21.40;;;;;;;-141.02;100.00;55844.97;5137246;27;20193;-71
2022/03/12 07:44:33;;;;;;;22.27;20.87;;;;;;;-141.02;100.00;55844.97;5136361;27;20283;-71
2022/03/12 07:47:00;;;;;;;23.30;21.80;;;;;;;-141.02;100.00;55844.97;5136163;27;20705;-71
2022/03/12 07:49:28;;;;;;;21.40;20.30;;;;;;;-141.02;100.00;55844.97;5136275;27;20192;-71
2022/03/12 07:51:56;;;;;;;22.70;21.33;;;;;;;-141.02;100.00;55844.97;5136427;27;20197;-71
2022/03/12 07:54:24;;;;;;;22.67;21.20;;;;;;;-141.02;100.00;55844.97;5136390;27;20275;-71
2022/03/12 07:56:51;;;;;;;22.60;21.23;;;;;;;-141.02;100.00;55844.97;5136112;27;20198;-71
2022/03/12 07:59:18;;;;;;;22.03;20.83;;;;;;;-141.02;100.00;55844.97;5136335;27;20235;-72
2022/03/12 08:01:46;;;;;;;21.93;20.73;;;;;;;-141.02;100.00;55844.97;5136334;27;20245;-72
2022/03/12 08:04:13;;;;;;;23.70;22.10;;;;;;;-141.02;100.00;55844.97;5136213;27;20192;-72
2022/03/12 08:06:40;;;;;;;21.93;20.83;;;;;;;-141.02;100.00;55844.97;5135859;27;20224;-71
2022/03/12 08:09:09;;;;;;;23.90;22.30;;;;;;;-141.02;100.00;55844.97;5136413;27;20257;-72
2022/03/12 08:11:36;;;;;;;22.53;21.23;;;;;;;-141.02;100.00;55844.97;5135842;27;20693;-72
2022/03/12 08:14:06;;;;;;;23.37;21.87;;;;;;;-141.02;100.00;55844.97;5136049;27;20192;-71
2022/03/12 08:16:35;;;;;;;21.67;20.47;;;;;;;-141.02;100.00;55844.97;5135678;27;20192;-72
2022/03/12 08:19:03;;;;;;;22.87;21.47;;;;;;;-141.02;100.00;55844.97;5135891;27;20228;-72
2022/03/12 08:21:30;;;;;;;24.77;23.07;;;;;;;-141.02;100.00;55844.97;5135187;27;20196;-71
2022/03/12 08:23:58;;;;;;;21.73;20.63;;;;;;;-141.02;100.00;55844.97;5136121;27;20283;-71
2022/03/12 08:26:27;;;;;;;26.13;23.67;;;;;;;-141.02;100.00;55844.97;5135997;27;20667;-71
2022/03/12 08:28:53;;;;;;;22.77;21.47;;;;;;;-141.02;100.00;55844.97;5135814;27;20196;-72
2022/03/12 08:31:21;;;;;;;21.40;20.30;;;;;;;-141.02;100.00;55844.97;5135752;27;20192;-72
2022/03/12 08:33:48;;;;;;;22.70;21.40;;;;;;;-141.02;100.00;55844.97;5135661;27;20254;-71
2022/03/12 08:36:16;;;;;;;24.53;22.90;;;;;;;-141.02;100.00;55844.97;5135658;27;20613;-71
2022/03/12 08:38:43;;;;;;;23.17;21.47;;;;;;;-141.02;100.00;55844.97;5135359;27;20260;-71
2022/03/12 08:41:11;;;;;;;23.87;22.57;;;;;;;-141.02;100.00;55844.97;5135259;27;20667;-72
2022/03/12 08:43:40;;;;;;;24.00;22.70;;;;;;;-141.02;100.00;55844.97;5135209;27;20196;-72
2022/03/12 08:46:08;;;;;;;23.23;21.80;;;;;;;-141.02;100.00;55844.97;5135885;27;20342;-71
2022/03/12 08:48:36;;;;;;;24.50;22.73;;;;;;;-141.02;100.00;55844.97;5135429;27;20196;-72
2022/03/12 08:51:03;;;;;;;23.33;22.07;;;;;;;-141.02;100.00;55844.97;5135051;27;20231;-71
2022/03/12 08:53:30;;;;;;;22.50;21.30;;;;;;;-141.02;100.00;55844.97;5135013;27;20228;-72
2022/03/12 08:56:00;;;;;;;23.00;21.70;;;;;;;-141.02;100.00;55844.97;5134966;27;20200;-71
2022/03/12 08:58:27;;;;;;;23.80;22.40;;;;;;;-141.02;100.00;55844.97;5134943;27;20189;-71
2022/03/12 09:00:55;;;;;;;22.30;21.10;;;;;;;-141.02;100.00;55844.97;5135749;27;20196;-72
2022/03/12 09:03:23;;;;;;;21.83;20.83;;;;;;;-141.02;100.00;55844.97;5135628;27;20249;-72
2022/03/12 09:05:52;;;;;;;21.73;20.70;;;;;;;-141.02;100.00;55844.97;5135508;27;20224;-72
2022/03/12 09:08:19;;;;;;;21.97;20.87;;;;;;;-141.02;100.00;55844.97;5134972;27;20192;-72
2022/03/12 09:10:47;;;;;;;23.13;21.83;;;;;;;-141.02;100.00;55844.97;5134697;27;20189;-72
2022/03/12 09:13:15;;;;;;;21.20;20.10;;;;;;;-141.02;100.00;55844.97;5134590;27;20730;-72
2022/03/12 09:15:43;;;;;;;23.20;21.67;;;;;;;-141.02;100.00;55844.97;5134611;27;20229;-72
2022/03/12 09:18:12;;;;;;;23.13;21.73;;;;;;;-141.02;100.00;55844.97;5134499;27;20200;-75
2022/03/12 09:20:45;;;;;;;23.23;21.83;;;;;;;-141.02;100.00;55844.97;5134422;27;20281;-72
2022/03/12 09:23:13;;;;;;;23.37;21.97;;;;;;;-141.02;100.00;55844.97;5134460;27;20196;-71
2022/03/12 09:25:40;;;;;;;21.60;20.50;;;;;;;-141.02;100.00;55844.97;5134278;27;20235;-71
2022/03/12 09:28:08;;;;;;;22.97;21.60;;;;;;;-141.02;100.00;55844.97;5134680;27;20200;-71
2022/03/12 09:30:35;;;;;;;21.60;20.50;;;;;;;-141.02;100.00;55844.97;5134348;27;20192;-72
2022/03/12 09:33:03;;;;;;;21.43;20.33;;;;;;;-141.02;100.00;55844.97;5134596;27;20279;-72
2022/03/12 09:35:32;;;;;;;21.23;20.13;;;;;;;-141.02;100.00;55844.97;5134412;27;20192;-71
2022/03/12 09:38:00;;;;;;;22.13;20.93;;;;;;;-141.02;100.00;55844.97;5133898;27;20228;-71
2022/03/12 09:40:28;;;;;;;21.83;20.27;;;;;;;-141.02;100.00;55844.97;5134096;27;20240;-72
2022/03/12 09:42:55;;;;;;;23.17;21.77;;;;;;;-141.02;100.00;55844.97;5134297;27;20210;-72
2022/03/12 09:45:23;;;;;;;21.67;20.47;;;;;;;-141.02;100.00;55844.97;5133961;27;20283;-71
2022/03/12 09:47:52;;;;;;;22.63;21.20;;;;;;;-141.02;100.00;55844.97;5133789;27;20220;-71
2022/03/12 09:50:20;;;;;;;22.00;20.77;;;;;;;-141.02;100.00;55844.97;5134207;27;20204;-71
2022/03/12 09:52:50;;;;;;;23.03;21.80;;;;;;;-141.02;100.00;55844.97;5134115;27;20619;-71
2022/03/12 09:55:19;;;;;;;22.03;20.83;;;;;;;-141.02;100.00;55844.97;5133790;27;20228;-71
2022/03/12 09:57:46;;;;;;;52.93;29.73;;;;;;;-141.02;100.00;55844.97;5133710;27;20650;-70
2022/03/12 10:00:14;;;;;;;24.97;22.70;;;;;;;-141.02;100.00;55844.97;5133992;27;20199;-70
2022/03/12 10:02:41;;;;;;;21.27;20.07;;;;;;;-141.02;100.00;55844.97;5133666;27;20192;-69
2022/03/12 10:05:11;;;;;;;21.63;20.43;;;;;;;-141.02;100.00;55844.97;5133864;27;20224;-71
2022/03/12 10:07:39;;;;;;;22.43;21.03;;;;;;;-141.02;100.00;55844.97;5133487;27;20220;-71
2022/03/12 10:10:13;;;;;;;22.87;21.00;;;;;;;-141.02;100.00;55844.97;5133825;27;20613;-72
2022/03/12 10:12:40;;;;;;;22.27;20.97;;;;;;;-141.02;100.00;55844.97;5134111;27;20196;-71
2022/03/12 10:15:10;;;;;;;22.40;21.10;;;;;;;-141.02;100.00;55844.97;5133429;27;20645;-70
2022/03/12 10:17:37;;;;;;;22.00;20.77;;;;;;;-141.02;100.00;55844.97;5133889;27;20197;-73
2022/03/12 10:20:06;;;;;;;21.53;20.13;;;;;;;-141.02;100.00;55844.97;5133362;27;20193;-70
2022/03/12 10:22:33;;;;;;;20.60;19.40;;;;;;;-141.02;100.00;55844.97;5133264;27;20192;-70
2022/03/12 10:25:00;;;;;;;21.90;20.47;;;;;;;-141.02;100.00;55844.97;5133855;27;20286;-70
2022/03/12 10:27:29;;;;;;;21.60;20.30;;;;;;;-141.02;100.00;55844.97;5133129;27;20220;-70
2022/03/12 10:29:56;;;;;;;18.63;17.73;;;;;;;-141.02;100.00;55844.97;5133479;27;20202;-71
2022/03/12 10:32:26;;;;;;;19.50;18.40;;;;;;;-141.02;100.00;55844.97;5133521;27;20651;-71
2022/03/12 10:34:56;;;;;;;20.67;19.33;;;;;;;-141.02;100.00;55844.97;5133127;27;20191;-69
2022/03/12 10:37:25;;;;;;;19.90;18.60;;;;;;;-141.02;100.00;55844.97;5133152;27;20310;-71
2022/03/12 10:40:03;;;;;;;18.43;17.43;;;;;;;-141.02;100.00;55844.97;5133060;27;20643;-72
2022/03/12 10:42:32;;;;;;;20.20;19.00;;;;;;;-141.02;100.00;55844.97;5133033;27;20192;-71
2022/03/12 10:45:08;;;;;;;20.23;19.03;;;;;;;-141.02;100.00;55844.97;5132967;27;20196;-72
2022/03/12 10:47:44;;;;;;;19.97;18.67;;;;;;;-141.02;100.00;55844.97;5133261;27;20234;-72
2022/03/12 10:50:15;;;;;;;19.90;18.77;;;;;;;-141.02;100.00;55844.97;5133307;27;20192;-72
2022/03/12 10:52:49;;;;;;;19.47;18.40;;;;;;;-141.02;100.00;55844.97;5132937;28;20184;-72
2022/03/12 10:55:24;;;;;;;20.97;19.57;;;;;;;-141.02;100.00;55844.97;5132989;27;20185;-73
2022/03/12 10:58:02;;;;;;;20.77;19.47;;;;;;;-141.02;100.00;55844.97;5132924;27;20180;-72
2022/03/12 11:00:30;;;;;;;20.60;19.50;;;;;;;-141.02;100.00;55844.97;5132921;28;20188;-73